sensor_id;sensor_type;location;lat;lon;timestamp;P1;durP1;ratioP1;P2;durP2;ratioP2
39822;SDS011;25499;53.958;10.970;2023-07-13T05:19:01;4.95;;;2.20;;
39822;SDS011;25499;53.958;10.970;2023-07-13T05:21:28;5.75;;;1.85;;
39822;SDS011;25499;53.958;10.970;2023-07-13T05:23:55;6.35;;;1.90;;
39822;SDS011;25499;53.958;10.970;2023-07-13T05:26:22;3.47;;;1.77;;
39822;SDS011;25499;53.958;10.970;2023-07-13T05:28:49;6.22;;;2.17;;
39822;SDS011;25499;53.958;10.970;2023-07-13T05:31:16;6.97;;;2.03;;
39822;SDS011;25499;53.958;10.970;2023-07-13T05:33:43;6.35;;;1.60;;
39822;SDS011;25499;53.958;10.970;2023-07-13T05:36:11;3.28;;;1.70;;
39822;SDS011;25499;53.958;10.970;2023-07-13T05:38:38;2.97;;;1.60;;
39822;SDS011;25499;53.958;10.970;2023-07-13T05:41:06;5.00;;;1.50;;
39822;SDS011;25499;53.958;10.970;2023-07-13T05:43:32;4.63;;;1.60;;
39822;SDS011;25499;53.958;10.970;2023-07-13T05:46:00;4.97;;;1.50;;
39822;SDS011;25499;53.958;10.970;2023-07-13T05:48:27;4.10;;;1.60;;
39822;SDS011;25499;53.958;10.970;2023-07-13T05:50:54;5.13;;;1.50;;
39822;SDS011;25499;53.958;10.970;2023-07-13T05:53:22;3.70;;;1.20;;
39822;SDS011;25499;53.958;10.970;2023-07-13T10:00:55;3.57;;;1.10;;
39822;SDS011;25499;53.958;10.970;2023-07-13T10:03:24;2.97;;;0.90;;
39822;SDS011;25499;53.958;10.970;2023-07-13T10:09:08;4.80;;;1.20;;
39822;SDS011;25499;53.958;10.970;2023-07-13T10:11:36;1.95;;;0.90;;
39822;SDS011;25499;53.958;10.970;2023-07-13T10:14:09;3.95;;;1.15;;
39822;SDS011;25499;53.958;10.970;2023-07-13T10:16:40;4.25;;;0.88;;
39822;SDS011;25499;53.958;10.970;2023-07-13T10:19:11;4.45;;;0.90;;
39822;SDS011;25499;53.958;10.970;2023-07-13T10:21:47;4.60;;;1.08;;
39822;SDS011;25499;53.958;10.970;2023-07-13T10:24:21;3.37;;;0.97;;
39822;SDS011;25499;53.958;10.970;2023-07-13T10:26:52;3.22;;;1.00;;
39822;SDS011;25499;53.958;10.970;2023-07-13T10:29:23;4.70;;;1.30;;
39822;SDS011;25499;53.958;10.970;2023-07-13T10:31:55;5.75;;;1.27;;
39822;SDS011;25499;53.958;10.970;2023-07-13T10:34:23;4.20;;;1.00;;
39822;SDS011;25499;53.958;10.970;2023-07-13T10:36:52;6.93;;;1.20;;
39822;SDS011;25499;53.958;10.970;2023-07-13T10:39:21;3.08;;;0.98;;
39822;SDS011;25499;53.958;10.970;2023-07-13T10:41:54;5.90;;;0.90;;
39822;SDS011;25499;53.958;10.970;2023-07-13T10:44:29;3.47;;;1.10;;
39822;SDS011;25499;53.958;10.970;2023-07-13T10:47:01;4.95;;;1.33;;
39822;SDS011;25499;53.958;10.970;2023-07-13T10:49:32;3.10;;;1.17;;
39822;SDS011;25499;53.958;10.970;2023-07-13T10:52:04;4.50;;;1.00;;
39822;SDS011;25499;53.958;10.970;2023-07-13T10:54:33;3.58;;;1.15;;
39822;SDS011;25499;53.958;10.970;2023-07-13T10:57:16;3.63;;;1.02;;
39822;SDS011;25499;53.958;10.970;2023-07-13T10:59:48;3.95;;;1.20;;
39822;SDS011;25499;53.958;10.970;2023-07-13T11:02:58;3.65;;;1.13;;
39822;SDS011;25499;53.958;10.970;2023-07-13T11:05:30;4.00;;;1.38;;
39822;SDS011;25499;53.958;10.970;2023-07-13T11:08:13;2.13;;;1.20;;
39822;SDS011;25499;53.958;10.970;2023-07-13T11:10:47;4.18;;;1.10;;
39822;SDS011;25499;53.958;10.970;2023-07-13T11:16:12;2.97;;;1.23;;
39822;SDS011;25499;53.958;10.970;2023-07-13T11:18:41;4.07;;;1.35;;
39822;SDS011;25499;53.958;10.970;2023-07-13T11:21:15;3.63;;;0.98;;
39822;SDS011;25499;53.958;10.970;2023-07-13T11:23:44;4.68;;;1.17;;
39822;SDS011;25499;53.958;10.970;2023-07-13T11:29:27;3.35;;;1.10;;
39822;SDS011;25499;53.958;10.970;2023-07-13T11:32:00;2.38;;;1.10;;
39822;SDS011;25499;53.958;10.970;2023-07-13T11:34:47;5.82;;;0.98;;
39822;SDS011;25499;53.958;10.970;2023-07-13T11:37:16;2.17;;;0.82;;
39822;SDS011;25499;53.958;10.970;2023-07-13T11:39:44;7.05;;;1.10;;
39822;SDS011;25499;53.958;10.970;2023-07-13T11:42:15;4.10;;;0.90;;
39822;SDS011;25499;53.958;10.970;2023-07-13T11:44:45;3.10;;;1.15;;
39822;SDS011;25499;53.958;10.970;2023-07-13T11:47:16;10.43;;;1.30;;
39822;SDS011;25499;53.958;10.970;2023-07-13T11:49:45;22.25;;;2.75;;
39822;SDS011;25499;53.958;10.970;2023-07-13T11:52:19;8.10;;;1.48;;
39822;SDS011;25499;53.958;10.970;2023-07-13T11:57:19;5.97;;;1.55;;
39822;SDS011;25499;53.958;10.970;2023-07-13T11:59:52;3.17;;;1.20;;
39822;SDS011;25499;53.958;10.970;2023-07-13T12:02:25;1.60;;;1.00;;
39822;SDS011;25499;53.958;10.970;2023-07-13T12:04:58;5.00;;;1.33;;
39822;SDS011;25499;53.958;10.970;2023-07-13T12:07:28;3.30;;;1.47;;
39822;SDS011;25499;53.958;10.970;2023-07-13T12:12:28;4.90;;;1.50;;
39822;SDS011;25499;53.958;10.970;2023-07-13T12:14:55;2.75;;;1.35;;
39822;SDS011;25499;53.958;10.970;2023-07-13T12:17:23;5.38;;;1.52;;
39822;SDS011;25499;53.958;10.970;2023-07-13T12:19:52;4.72;;;1.50;;
39822;SDS011;25499;53.958;10.970;2023-07-13T12:22:21;5.80;;;2.00;;
39822;SDS011;25499;53.958;10.970;2023-07-13T12:24:49;3.20;;;1.35;;
39822;SDS011;25499;53.958;10.970;2023-07-13T12:27:19;4.90;;;1.42;;
39822;SDS011;25499;53.958;10.970;2023-07-13T12:29:49;5.70;;;1.50;;
39822;SDS011;25499;53.958;10.970;2023-07-13T12:32:18;6.38;;;1.58;;
39822;SDS011;25499;53.958;10.970;2023-07-13T12:34:53;2.97;;;1.10;;
39822;SDS011;25499;53.958;10.970;2023-07-13T12:37:23;2.72;;;1.33;;
39822;SDS011;25499;53.958;10.970;2023-07-13T12:39:51;5.63;;;1.42;;
39822;SDS011;25499;53.958;10.970;2023-07-13T12:42:19;4.30;;;1.20;;
39822;SDS011;25499;53.958;10.970;2023-07-13T12:44:52;3.33;;;1.25;;
39822;SDS011;25499;53.958;10.970;2023-07-13T12:47:20;1.90;;;0.73;;
39822;SDS011;25499;53.958;10.970;2023-07-13T12:49:47;3.30;;;0.80;;
39822;SDS011;25499;53.958;10.970;2023-07-13T12:52:17;1.50;;;0.80;;
39822;SDS011;25499;53.958;10.970;2023-07-13T12:54:56;4.22;;;1.00;;
39822;SDS011;25499;53.958;10.970;2023-07-13T12:57:24;3.47;;;0.82;;
39822;SDS011;25499;53.958;10.970;2023-07-13T12:59:52;2.90;;;0.90;;
39822;SDS011;25499;53.958;10.970;2023-07-13T13:02:26;4.00;;;1.00;;
39822;SDS011;25499;53.958;10.970;2023-07-13T13:04:57;1.08;;;0.70;;
39822;SDS011;25499;53.958;10.970;2023-07-13T13:07:25;4.20;;;1.00;;
39822;SDS011;25499;53.958;10.970;2023-07-13T13:09:52;1.63;;;0.88;;
39822;SDS011;25499;53.958;10.970;2023-07-13T13:12:21;7.78;;;1.08;;
39822;SDS011;25499;53.958;10.970;2023-07-13T13:14:51;3.83;;;0.90;;
39822;SDS011;25499;53.958;10.970;2023-07-13T13:17:19;2.03;;;0.80;;
39822;SDS011;25499;53.958;10.970;2023-07-13T13:19:49;2.50;;;1.00;;
39822;SDS011;25499;53.958;10.970;2023-07-13T13:22:18;3.70;;;0.70;;
39822;SDS011;25499;53.958;10.970;2023-07-13T13:24:45;2.50;;;1.02;;
39822;SDS011;25499;53.958;10.970;2023-07-13T13:27:14;4.20;;;1.00;;
39822;SDS011;25499;53.958;10.970;2023-07-13T13:29:45;2.97;;;0.93;;
39822;SDS011;25499;53.958;10.970;2023-07-13T13:32:13;3.80;;;1.10;;
39822;SDS011;25499;53.958;10.970;2023-07-13T13:34:41;3.95;;;1.40;;
39822;SDS011;25499;53.958;10.970;2023-07-13T13:37:18;3.75;;;1.10;;
39822;SDS011;25499;53.958;10.970;2023-07-13T13:39:47;3.28;;;0.80;;
39822;SDS011;25499;53.958;10.970;2023-07-13T13:42:16;4.05;;;0.82;;
39822;SDS011;25499;53.958;10.970;2023-07-13T13:44:42;4.10;;;1.10;;
39822;SDS011;25499;53.958;10.970;2023-07-13T13:47:20;5.47;;;1.10;;
39822;SDS011;25499;53.958;10.970;2023-07-13T13:49:54;1.67;;;0.98;;
39822;SDS011;25499;53.958;10.970;2023-07-13T13:52:21;3.05;;;1.00;;
39822;SDS011;25499;53.958;10.970;2023-07-13T13:54:48;4.57;;;1.20;;
39822;SDS011;25499;53.958;10.970;2023-07-13T13:57:15;1.88;;;1.30;;
39822;SDS011;25499;53.958;10.970;2023-07-13T13:59:42;5.45;;;1.30;;
39822;SDS011;25499;53.958;10.970;2023-07-13T14:02:19;3.63;;;1.33;;
39822;SDS011;25499;53.958;10.970;2023-07-13T14:04:50;4.97;;;1.40;;
39822;SDS011;25499;53.958;10.970;2023-07-13T14:07:21;2.95;;;1.10;;
39822;SDS011;25499;53.958;10.970;2023-07-13T14:09:47;4.63;;;1.30;;
39822;SDS011;25499;53.958;10.970;2023-07-13T14:12:14;4.38;;;1.30;;
39822;SDS011;25499;53.958;10.970;2023-07-13T14:14:41;3.15;;;1.20;;
39822;SDS011;25499;53.958;10.970;2023-07-13T14:17:11;4.25;;;1.50;;
39822;SDS011;25499;53.958;10.970;2023-07-13T14:19:48;5.60;;;1.45;;
39822;SDS011;25499;53.958;10.970;2023-07-13T14:29:14;6.82;;;1.70;;
39822;SDS011;25499;53.958;10.970;2023-07-13T14:31:43;4.03;;;1.52;;
39822;SDS011;25499;53.958;10.970;2023-07-13T14:34:12;5.50;;;1.55;;
39822;SDS011;25499;53.958;10.970;2023-07-13T14:36:40;6.53;;;1.60;;
39822;SDS011;25499;53.958;10.970;2023-07-13T14:39:11;4.38;;;1.40;;
39822;SDS011;25499;53.958;10.970;2023-07-13T14:41:40;5.47;;;1.90;;
39822;SDS011;25499;53.958;10.970;2023-07-13T14:44:11;4.18;;;1.45;;
39822;SDS011;25499;53.958;10.970;2023-07-13T14:46:40;2.20;;;1.45;;
39822;SDS011;25499;53.958;10.970;2023-07-13T14:49:15;4.25;;;1.52;;
39822;SDS011;25499;53.958;10.970;2023-07-13T14:52:11;3.20;;;1.48;;
39822;SDS011;25499;53.958;10.970;2023-07-13T14:54:48;5.13;;;1.70;;
39822;SDS011;25499;53.958;10.970;2023-07-13T14:57:22;4.50;;;1.60;;
39822;SDS011;25499;53.958;10.970;2023-07-13T15:00:04;4.18;;;1.70;;
39822;SDS011;25499;53.958;10.970;2023-07-13T15:02:41;3.95;;;1.40;;
39822;SDS011;25499;53.958;10.970;2023-07-13T15:05:17;2.25;;;1.70;;
39822;SDS011;25499;53.958;10.970;2023-07-13T15:07:49;3.85;;;1.40;;
39822;SDS011;25499;53.958;10.970;2023-07-13T15:10:19;4.80;;;1.65;;
39822;SDS011;25499;53.958;10.970;2023-07-13T15:12:51;5.90;;;1.70;;
39822;SDS011;25499;53.958;10.970;2023-07-13T15:15:24;7.28;;;1.52;;
39822;SDS011;25499;53.958;10.970;2023-07-13T15:17:53;3.45;;;1.60;;
39822;SDS011;25499;53.958;10.970;2023-07-13T15:20:26;7.50;;;1.88;;
39822;SDS011;25499;53.958;10.970;2023-07-13T15:23:00;3.05;;;1.58;;
39822;SDS011;25499;53.958;10.970;2023-07-13T15:25:28;4.63;;;1.60;;
39822;SDS011;25499;53.958;10.970;2023-07-13T15:28:01;3.80;;;1.88;;
39822;SDS011;25499;53.958;10.970;2023-07-13T15:30:31;4.95;;;1.67;;
39822;SDS011;25499;53.958;10.970;2023-07-13T15:33:13;5.15;;;1.73;;
39822;SDS011;25499;53.958;10.970;2023-07-13T15:36:05;2.38;;;1.50;;
39822;SDS011;25499;53.958;10.970;2023-07-13T15:38:35;7.65;;;1.70;;
39822;SDS011;25499;53.958;10.970;2023-07-13T15:41:04;5.63;;;1.77;;
39822;SDS011;25499;53.958;10.970;2023-07-13T15:43:54;7.05;;;2.10;;
39822;SDS011;25499;53.958;10.970;2023-07-13T15:46:27;5.23;;;1.70;;
39822;SDS011;25499;53.958;10.970;2023-07-13T15:48:56;5.85;;;1.95;;
39822;SDS011;25499;53.958;10.970;2023-07-13T15:51:30;4.38;;;1.83;;
39822;SDS011;25499;53.958;10.970;2023-07-13T15:54:03;5.90;;;1.70;;
39822;SDS011;25499;53.958;10.970;2023-07-13T15:56:35;4.63;;;1.52;;
39822;SDS011;25499;53.958;10.970;2023-07-13T15:59:07;3.72;;;1.38;;
39822;SDS011;25499;53.958;10.970;2023-07-13T16:01:39;6.30;;;1.33;;
39822;SDS011;25499;53.958;10.970;2023-07-13T16:04:11;6.47;;;1.45;;
39822;SDS011;25499;53.958;10.970;2023-07-13T16:06:42;2.13;;;1.20;;
39822;SDS011;25499;53.958;10.970;2023-07-13T16:09:16;4.80;;;1.17;;
39822;SDS011;25499;53.958;10.970;2023-07-13T16:11:54;2.75;;;1.15;;
39822;SDS011;25499;53.958;10.970;2023-07-13T16:14:28;2.97;;;0.82;;
39822;SDS011;25499;53.958;10.970;2023-07-13T16:16:58;3.20;;;0.90;;
39822;SDS011;25499;53.958;10.970;2023-07-13T16:22:27;3.10;;;0.77;;
39822;SDS011;25499;53.958;10.970;2023-07-13T16:24:56;2.72;;;0.73;;
39822;SDS011;25499;53.958;10.970;2023-07-13T16:27:39;1.75;;;0.80;;
39822;SDS011;25499;53.958;10.970;2023-07-13T16:30:16;4.38;;;0.60;;
39822;SDS011;25499;53.958;10.970;2023-07-13T16:32:47;0.90;;;0.50;;
39822;SDS011;25499;53.958;10.970;2023-07-13T16:38:28;3.35;;;0.82;;
39822;SDS011;25499;53.958;10.970;2023-07-13T16:40:56;2.78;;;0.70;;
39822;SDS011;25499;53.958;10.970;2023-07-13T16:43:25;1.38;;;0.63;;
39822;SDS011;25499;53.958;10.970;2023-07-13T16:45:52;3.17;;;0.60;;
39822;SDS011;25499;53.958;10.970;2023-07-13T16:48:24;4.63;;;0.70;;
39822;SDS011;25499;53.958;10.970;2023-07-13T16:50:55;1.55;;;0.60;;
39822;SDS011;25499;53.958;10.970;2023-07-13T16:53:26;1.90;;;0.82;;
39822;SDS011;25499;53.958;10.970;2023-07-13T16:55:54;1.90;;;0.75;;
39822;SDS011;25499;53.958;10.970;2023-07-13T16:58:25;2.38;;;0.70;;
39822;SDS011;25499;53.958;10.970;2023-07-13T17:00:55;2.50;;;0.70;;
39822;SDS011;25499;53.958;10.970;2023-07-13T17:03:23;1.77;;;0.65;;
39822;SDS011;25499;53.958;10.970;2023-07-13T17:05:52;1.60;;;0.80;;
39822;SDS011;25499;53.958;10.970;2023-07-13T17:08:29;1.88;;;0.57;;
39822;SDS011;25499;53.958;10.970;2023-07-13T17:10:58;1.52;;;0.80;;
39822;SDS011;25499;53.958;10.970;2023-07-13T17:14:07;4.72;;;0.70;;
39822;SDS011;25499;53.958;10.970;2023-07-13T17:18:03;3.00;;;0.90;;
